MSC Lea — 9HA2639 — position and weather

sailwx.info

Track history (hours):
 
Tides and Currents Weather Stations Pressure Air Temp Water Temp Dewpoint Dewpoint Depression Visibility Wind Speed Wind Dir Waves Ship Positions

MSC Lea

Last reported at 2017-Mar-27 05:30 UTC. Time now 2017-Mar-27 06:46 UTC.
Position N 31°52' E 034°34'.

Length 216 m; draft 10.1 m.

Type: Ship (hazmat cat D). MMSI: 215101000.

Date/timePositionNaut miles runAvg speedWind from/ knotsBaromVisibWave heightAir tempDewpointWater temp
2017-Mar-27 05:30N 31°52' E 034°34'1313.9
2017-Mar-27 04:33N 32°05' E 034°32'1818.2
2017-Mar-27 03:34N 32°22' E 034°38'1818.2
2017-Mar-27 02:33N 32°40' E 034°44'1616.0
2017-Mar-27 01:34N 32°53' E 034°55'6 6.3
2017-Mar-27 00:32N 32°49' E 035°01'0 0.0
2017-Mar-26 23:32N 32°49' E 035°01'0 0.0
2017-Mar-26 22:32N 32°49' E 035°01'0 0.0
2017-Mar-26 21:32N 32°49' E 035°01'0 0.0
2017-Mar-26 20:32N 32°49' E 035°01'0 0.0
2017-Mar-26 19:32N 32°49' E 035°01'0 0.0
2017-Mar-26 18:32N 32°49' E 035°01'0 0.0
2017-Mar-26 17:32N 32°49' E 035°01'0 0.0
2017-Mar-26 16:32N 32°49' E 035°01'0 0.0
2017-Mar-26 15:32N 32°49' E 035°01'0 0.0
2017-Mar-26 14:32N 32°49' E 035°01'0 0.0
2017-Mar-26 13:32N 32°49' E 035°01'0 0.0
2017-Mar-26 12:32N 32°49' E 035°01'0 0.0
2017-Mar-26 11:31N 32°49' E 035°01'0 0.0
2017-Mar-26 10:33N 32°49' E 035°01'0 0.0
2017-Mar-26 09:33N 32°49' E 035°01'0 0.0
2017-Mar-26 08:27N 32°49' E 035°01'0 0.0
2017-Mar-26 07:31N 32°49' E 035°01'0 0.0
2017-Mar-26 06:33N 32°49' E 035°01'0 0.0
2017-Mar-26 05:33N 32°49' E 035°01'0 0.0
2017-Mar-26 04:33N 32°49' E 035°01'0 0.5
2017-Mar-26 03:33N 32°49' E 035°01'3 2.9
2017-Mar-26 02:33N 32°52' E 034°59'5 5.1
2017-Mar-26 01:33N 32°56' E 034°55'1313.2
2017-Mar-26 00:33N 32°56' E 034°39'1615.6
2017-Mar-25 23:33N 32°59' E 034°21'1615.6
2017-Mar-25 22:33N 33°02' E 034°03'1515.2
2017-Mar-25 21:32N 33°01' E 033°44'1515.6
2017-Mar-25 20:33N 32°57' E 033°27'1915.5
2017-Mar-25 19:22N 32°53' E 033°05'8115.3
2017-Mar-25 14:06N 33°11' E 031°31'711.7
2017-Mar-25 13:30N 33°13' E 031°23'1313.5
2017-Mar-25 12:33N 33°17' E 031°09'1713.6
2017-Mar-25 11:16N 33°21' E 030°49'  
2017-Mar-23 01:18N 40°29' E 018°26'1514.2
2017-Mar-23 00:14N 40°40' E 018°14'1313.9
2017-Mar-22 23:19N 40°50' E 018°02'26813.6
2017-Mar-22 03:33N 43°57' E 013°42'5212.8
2017-Mar-21 23:28N 44°40' E 012°60'1213.6
2017-Mar-21 22:33N 44°51' E 012°53'1413.8
2017-Mar-21 21:33N 45°04' E 012°44'1313.2
2017-Mar-21 20:34N 45°13' E 012°31'1111.0
2017-Mar-21 19:34N 45°20' E 012°19'7 7.2
2017-Mar-21 18:34N 45°27' E 012°16'0 0.3
2017-Mar-21 17:31N 45°27' E 012°15'0 0.0
2017-Mar-21 16:34N 45°27' E 012°15'0 0.0
2017-Mar-21 15:34N 45°27' E 012°15'0 0.0
2017-Mar-21 14:34N 45°27' E 012°15'0 0.0
2017-Mar-21 13:34N 45°27' E 012°15'0 0.0
2017-Mar-21 12:33N 45°27' E 012°15'0 0.0
2017-Mar-21 11:33N 45°27' E 012°15'0 0.0
2017-Mar-21 10:30N 45°27' E 012°15'0 0.0
2017-Mar-21 09:33N 45°27' E 012°15'0 0.0
2017-Mar-21 08:27N 45°27' E 012°15'0 0.0
2017-Mar-21 07:33N 45°27' E 012°15'0 0.4
2017-Mar-21 06:33N 45°27' E 012°16'7 6.7
2017-Mar-21 05:33N 45°20' E 012°18'8 7.1
2017-Mar-21 04:27N 45°21' E 012°29'0 0.3
2017-Mar-21 03:25N 45°21' E 012°29'0 0.0
2017-Mar-21 02:28N 45°21' E 012°29'0 0.0
2017-Mar-21 01:31N 45°21' E 012°29'0 0.1
2017-Mar-21 00:31N 45°21' E 012°29'0 0.0
2017-Mar-20 23:22N 45°21' E 012°29'0 0.1
2017-Mar-20 22:33N 45°21' E 012°29'7 6.8
2017-Mar-20 21:33N 45°15' E 012°35'1615.7
2017-Mar-20 20:33N 45°05' E 012°52'1515.1
2017-Mar-20 19:33N 44°50' E 012°50'1616.2
2017-Mar-20 18:33N 44°35' E 012°41'1413.7
2017-Mar-20 17:33N 44°30' E 012°23'  
Track history (hours):
 
Tides and Currents Weather Stations Pressure Air Temp Water Temp Dewpoint Dewpoint Depression Visibility Wind Speed Wind Dir Waves Ship Positions

MSC Lea

Last reported at 2017-Mar-27 05:30 UTC. Time now 2017-Mar-27 06:46 UTC.
Position N 31°52' E 034°34'.

Length 216 m; draft 10.1 m.

Type: Ship (hazmat cat D). MMSI: 215101000.

Date/timePositionNaut miles runAvg speedWind from/ knotsBaromVisibWave heightAir tempDewpointWater temp
2017-Mar-27 05:30N 31°52' E 034°34'1313.9
2017-Mar-27 04:33N 32°05' E 034°32'1818.2
2017-Mar-27 03:34N 32°22' E 034°38'1818.2
2017-Mar-27 02:33N 32°40' E 034°44'1616.0
2017-Mar-27 01:34N 32°53' E 034°55'6 6.3
2017-Mar-27 00:32N 32°49' E 035°01'0 0.0
2017-Mar-26 23:32N 32°49' E 035°01'0 0.0
2017-Mar-26 22:32N 32°49' E 035°01'0 0.0
2017-Mar-26 21:32N 32°49' E 035°01'0 0.0
2017-Mar-26 20:32N 32°49' E 035°01'0 0.0
2017-Mar-26 19:32N 32°49' E 035°01'0 0.0
2017-Mar-26 18:32N 32°49' E 035°01'0 0.0
2017-Mar-26 17:32N 32°49' E 035°01'0 0.0
2017-Mar-26 16:32N 32°49' E 035°01'0 0.0
2017-Mar-26 15:32N 32°49' E 035°01'0 0.0
2017-Mar-26 14:32N 32°49' E 035°01'0 0.0
2017-Mar-26 13:32N 32°49' E 035°01'0 0.0
2017-Mar-26 12:32N 32°49' E 035°01'0 0.0
2017-Mar-26 11:31N 32°49' E 035°01'0 0.0
2017-Mar-26 10:33N 32°49' E 035°01'0 0.0
2017-Mar-26 09:33N 32°49' E 035°01'0 0.0
2017-Mar-26 08:27N 32°49' E 035°01'0 0.0
2017-Mar-26 07:31N 32°49' E 035°01'0 0.0
2017-Mar-26 06:33N 32°49' E 035°01'0 0.0
2017-Mar-26 05:33N 32°49' E 035°01'0 0.0
2017-Mar-26 04:33N 32°49' E 035°01'0 0.5
2017-Mar-26 03:33N 32°49' E 035°01'3 2.9
2017-Mar-26 02:33N 32°52' E 034°59'5 5.1
2017-Mar-26 01:33N 32°56' E 034°55'1313.2
2017-Mar-26 00:33N 32°56' E 034°39'1615.6
2017-Mar-25 23:33N 32°59' E 034°21'1615.6
2017-Mar-25 22:33N 33°02' E 034°03'1515.2
2017-Mar-25 21:32N 33°01' E 033°44'1515.6
2017-Mar-25 20:33N 32°57' E 033°27'1915.5
2017-Mar-25 19:22N 32°53' E 033°05'8115.3
2017-Mar-25 14:06N 33°11' E 031°31'711.7
2017-Mar-25 13:30N 33°13' E 031°23'1313.5
2017-Mar-25 12:33N 33°17' E 031°09'1713.6
2017-Mar-25 11:16N 33°21' E 030°49'  
2017-Mar-23 01:18N 40°29' E 018°26'1514.2
2017-Mar-23 00:14N 40°40' E 018°14'1313.9
2017-Mar-22 23:19N 40°50' E 018°02'26813.6
2017-Mar-22 03:33N 43°57' E 013°42'5212.8
2017-Mar-21 23:28N 44°40' E 012°60'1213.6
2017-Mar-21 22:33N 44°51' E 012°53'1413.8
2017-Mar-21 21:33N 45°04' E 012°44'1313.2
2017-Mar-21 20:34N 45°13' E 012°31'1111.0
2017-Mar-21 19:34N 45°20' E 012°19'7 7.2
2017-Mar-21 18:34N 45°27' E 012°16'0 0.3
2017-Mar-21 17:31N 45°27' E 012°15'0 0.0
2017-Mar-21 16:34N 45°27' E 012°15'0 0.0
2017-Mar-21 15:34N 45°27' E 012°15'0 0.0
2017-Mar-21 14:34N 45°27' E 012°15'0 0.0
2017-Mar-21 13:34N 45°27' E 012°15'0 0.0
2017-Mar-21 12:33N 45°27' E 012°15'0 0.0
2017-Mar-21 11:33N 45°27' E 012°15'0 0.0
2017-Mar-21 10:30N 45°27' E 012°15'0 0.0
2017-Mar-21 09:33N 45°27' E 012°15'0 0.0
2017-Mar-21 08:27N 45°27' E 012°15'0 0.0
2017-Mar-21 07:33N 45°27' E 012°15'0 0.4
2017-Mar-21 06:33N 45°27' E 012°16'7 6.7
2017-Mar-21 05:33N 45°20' E 012°18'8 7.1
2017-Mar-21 04:27N 45°21' E 012°29'0 0.3
2017-Mar-21 03:25N 45°21' E 012°29'0 0.0
2017-Mar-21 02:28N 45°21' E 012°29'0 0.0
2017-Mar-21 01:31N 45°21' E 012°29'0 0.1
2017-Mar-21 00:31N 45°21' E 012°29'0 0.0
2017-Mar-20 23:22N 45°21' E 012°29'0 0.1
2017-Mar-20 22:33N 45°21' E 012°29'7 6.8
2017-Mar-20 21:33N 45°15' E 012°35'1615.7
2017-Mar-20 20:33N 45°05' E 012°52'1515.1
2017-Mar-20 19:33N 44°50' E 012°50'1616.2
2017-Mar-20 18:33N 44°35' E 012°41'1413.7
2017-Mar-20 17:33N 44°30' E 012°23'  

Dump ship's entire track history